Denton, Maryland
Current Conditions -  °F | °C
As of 4:18 AM on Wednesday 28 Jan 2015 (Local Time) from KESN Reporting Station
Clear Clear  
Wind Chill: 14°   Ceiling: Unl
Heat Index: 26°   Visibility: 10mi
Dew Point: 12°   Wind: 14mph
Humidity: 55%   Direction: 360°N
Pressure: 30.07"   Gusts: 17mph
Location:  38.88°N, 75.83°W
Report Text: KESN 280918Z AUTO 36012G15KT 10SM CLR M03/M11 A3007 RMK AO2 T10331111
Loading
Personal Weather Stations






























Interactive Weather Map New forecast layout! Learn more

10-Day Weather Forecast

Advertisements
Track Severe Weather on mobile